Kapuskasing Airport
CYYU : now visible

Airfield :











YOU CAN JOIN US ON...

 
LOGIN :

Register | Disclaimer

   EN    FR    IT 

 









Legend :    VFR   Marginal VFR   IFR   Intensive IFR   Very Intensive IFR
Visi :
Ceiling :
>= 8 km
>= 3000ft
5 to 8 km
1000 to 3000 ft
1500m to 5 km
500 to 1000 ft
800 to 1500m
200 to 500 ft
< 800m
< 200 ft
Symbols :   Thunderstorms  Fog  Heavy snow  Heavy precipitations  Wind > 20 kt






- Airport Elevation : 743 ft
- IATA code : YYU


CYYU - Kapuskasing

CURRENT METAR :
  • 161329Z 19007KT 2SM -SN OVC035 M14/M16 A2989 RMK SN4SC4 SLP148

EXPIRED METARs :
  • 161300Z 19010KT 12SM -SN OVC032 M15/M17 A2989 RMK SC8 SLP148
  • 161200Z 17005KT 12SM -SN OVC043 M17/M19 A2991 RMK SC8 FROIN SLP156
  • 161100Z 19005KT 7SM -SN OVC044 M18/M21 A2992 RMK SC8 SLP161

TAF TAF CYYU
Valid from the 16 at 14:00 until the 17 at 02:00 UTC


161338Z 1614/1702 20010KT P6SM -SN OVC030
TEMPO 1614/1618 2SM -SN BKN015
BECMG 1614/1616 25008KT
FM161800 28008KT P6SM BKN030 RMK NXT FCST BY 162000Z



MET'MAP, your aeronautical weather chart ! - Copyright ORBIFLY December 2007 - Disclaimer

ORBIFLY MET'MAP TEAM :

Programming & Development : Alexandra Zaïnal
Concept & original design : Baudouin d'Aumeries
Assistance for programming : Marc-Olivier Méhu
Technical & hardware support : Manuel Goepfert

Contact : metmap@orbifly.com




SOURCES & CREDITS :

   NOAA       Earth
Advisory